Flight Number: EUR2150 Duration: 1:30
Departure: Warsaw Okecie (EPWA) at 21:10 Distance: 420 Nm
Arrival: Munich Int'l (EDDM) at 22:40 Equipment: CRJ700

Weather Information
Warszawa-Okecie, Poland (EPWA) 52-10N 020-58E 107M May 22, 2018 - 03:00 PM EDT / 2018.05.22 1900 UTC
Wind: Variable at 2 MPH (2 KT):0
Visibility: greater than 7 mile(s):0
Sky conditions: partly cloudy Weather: light rain showers; Cumulonimbus clouds observed Temperature: 64 F (18 C) Dew Point: 55 F (13 C) Relative Humidity: 72% Pressure (altimeter): 30.00 in. Hg (1016 hPa)
ob: EPWA 221900Z VRB02KT 9999 -SHRA SCT053CB 18/13 Q1016 TEMPO SHRA cycle: 19
Sunrise: 02:35 Sunset: 18:30 (UTC)

Munchen, Germany (EDDM) 48-21N 011-47E May 22, 2018 - 02:50 PM EDT / 2018.05.22 1850 UTC
Wind: from the SW (230 degrees) at 6 MPH (5 KT) (direction variable):0
Visibility: greater than 7 mile(s):0
Sky conditions: mostly cloudy Weather: light rain showers; Towering cumulus clouds observed Temperature: 62 F (17 C) Dew Point: 53 F (12 C) Relative Humidity: 72% Pressure (altimeter): 29.91 in. Hg (1013 hPa)
ob: EDDM 221850Z 23005KT 190V320 9999 -SHRA FEW055TCU SCT085 BKN120 17/12 Q1013 TEMPO SHRA cycle: 19
Sunrise: 03:28 Sunset: 18:51 (UTC)

TAF:2018/05/22 18:27 TAF EDDM 221700Z 2218/2324 VRB03KT CAVOK PROB40 TEMPO 2218/2220 18015G25KT TSRA BKN040CB PROB30 TEMPO 2304/2310 SHRA SCT040TCU BECMG 2308/2310 05007KT PROB40 TEMPO 2314/2320 16015G25KT TSRA BKN040CB BECMG 2318/2320 VRB03KT

Previous Pireps for this route
Date Aircraft Flight time Fuel used Landing rate On time
2012-09-14MD-8101.4610209-472Yes
2013-03-09MD-811.2082150No
2015-02-12B73701.469559-85Charter
2015-04-07MD-8101.156709-234Yes
2015-04-10CRJ7001.1948260No
2015-04-22MD-8101.259980-235Yes
2015-04-25MD-811.1798940Yes
2015-05-20CRJ7001.2338850Yes
2016-08-25A32102.0011534-237Charter
(pireps marked green are flown by you)

Route map